sensor_id;sensor_type;location;lat;lon;timestamp;temperature;humidity
23311;DHT22;11828;51.508;18.118;2023-11-18T00:01:31;23.40;32.40
23311;DHT22;11828;51.508;18.118;2023-11-18T00:03:59;23.30;32.50
23311;DHT22;11828;51.508;18.118;2023-11-18T00:06:25;23.30;32.60
23311;DHT22;11828;51.508;18.118;2023-11-18T00:08:52;23.30;32.70
23311;DHT22;11828;51.508;18.118;2023-11-18T00:11:18;23.30;32.80
23311;DHT22;11828;51.508;18.118;2023-11-18T00:13:44;23.30;32.70
23311;DHT22;11828;51.508;18.118;2023-11-18T00:16:10;23.30;32.60
23311;DHT22;11828;51.508;18.118;2023-11-18T00:18:42;23.30;32.60
23311;DHT22;11828;51.508;18.118;2023-11-18T00:21:08;23.20;32.60
23311;DHT22;11828;51.508;18.118;2023-11-18T00:23:35;23.30;32.70
23311;DHT22;11828;51.508;18.118;2023-11-18T00:26:01;23.20;32.70
23311;DHT22;11828;51.508;18.118;2023-11-18T00:28:28;23.20;33.00
23311;DHT22;11828;51.508;18.118;2023-11-18T00:30:53;23.20;32.80
23311;DHT22;11828;51.508;18.118;2023-11-18T00:33:20;23.20;32.80
23311;DHT22;11828;51.508;18.118;2023-11-18T00:35:46;23.20;32.80
23311;DHT22;11828;51.508;18.118;2023-11-18T00:38:12;23.10;32.90
23311;DHT22;11828;51.508;18.118;2023-11-18T00:40:38;23.10;33.00
23311;DHT22;11828;51.508;18.118;2023-11-18T00:43:04;23.10;32.80
23311;DHT22;11828;51.508;18.118;2023-11-18T00:45:30;23.10;32.80
23311;DHT22;11828;51.508;18.118;2023-11-18T00:47:56;23.00;32.60
23311;DHT22;11828;51.508;18.118;2023-11-18T00:50:22;23.00;32.70
23311;DHT22;11828;51.508;18.118;2023-11-18T00:52:49;23.00;32.80
23311;DHT22;11828;51.508;18.118;2023-11-18T00:55:15;23.00;32.70
23311;DHT22;11828;51.508;18.118;2023-11-18T00:57:46;22.90;32.90
23311;DHT22;11828;51.508;18.118;2023-11-18T01:00:13;23.00;33.10
23311;DHT22;11828;51.508;18.118;2023-11-18T01:02:42;23.00;33.00
23311;DHT22;11828;51.508;18.118;2023-11-18T01:05:09;23.00;32.90
23311;DHT22;11828;51.508;18.118;2023-11-18T01:07:39;23.10;33.00
23311;DHT22;11828;51.508;18.118;2023-11-18T01:10:09;23.00;33.00
23311;DHT22;11828;51.508;18.118;2023-11-18T01:12:37;23.10;33.10
23311;DHT22;11828;51.508;18.118;2023-11-18T01:15:03;23.10;33.10
23311;DHT22;11828;51.508;18.118;2023-11-18T01:17:30;23.10;33.10
23311;DHT22;11828;51.508;18.118;2023-11-18T01:19:57;23.10;33.40
23311;DHT22;11828;51.508;18.118;2023-11-18T01:22:24;23.20;33.00
23311;DHT22;11828;51.508;18.118;2023-11-18T01:24:50;23.10;33.20
23311;DHT22;11828;51.508;18.118;2023-11-18T01:27:19;23.10;33.20
23311;DHT22;11828;51.508;18.118;2023-11-18T01:29:46;23.10;33.30
23311;DHT22;11828;51.508;18.118;2023-11-18T01:32:13;23.20;33.40
23311;DHT22;11828;51.508;18.118;2023-11-18T01:34:39;23.20;33.10
23311;DHT22;11828;51.508;18.118;2023-11-18T01:37:06;23.30;32.90
23311;DHT22;11828;51.508;18.118;2023-11-18T01:39:33;23.30;33.00
23311;DHT22;11828;51.508;18.118;2023-11-18T01:42:00;23.30;32.80
23311;DHT22;11828;51.508;18.118;2023-11-18T01:44:26;23.30;32.90
23311;DHT22;11828;51.508;18.118;2023-11-18T01:46:57;23.30;33.00
23311;DHT22;11828;51.508;18.118;2023-11-18T01:49:25;23.30;33.00
23311;DHT22;11828;51.508;18.118;2023-11-18T01:51:53;23.30;32.90
23311;DHT22;11828;51.508;18.118;2023-11-18T01:54:21;23.30;33.00
23311;DHT22;11828;51.508;18.118;2023-11-18T01:56:49;23.30;33.00
23311;DHT22;11828;51.508;18.118;2023-11-18T01:59:16;23.20;32.90
23311;DHT22;11828;51.508;18.118;2023-11-18T02:01:52;23.20;33.00
23311;DHT22;11828;51.508;18.118;2023-11-18T02:04:20;23.20;33.10
23311;DHT22;11828;51.508;18.118;2023-11-18T02:06:51;23.20;33.10
23311;DHT22;11828;51.508;18.118;2023-11-18T02:09:22;23.20;33.20
23311;DHT22;11828;51.508;18.118;2023-11-18T02:14:43;23.20;33.30
23311;DHT22;11828;51.508;18.118;2023-11-18T02:17:13;23.20;33.20
23311;DHT22;11828;51.508;18.118;2023-11-18T02:19:40;23.20;33.00
23311;DHT22;11828;51.508;18.118;2023-11-18T02:22:07;23.20;33.00
23311;DHT22;11828;51.508;18.118;2023-11-18T02:24:35;23.20;33.10
23311;DHT22;11828;51.508;18.118;2023-11-18T02:27:06;23.10;33.10
23311;DHT22;11828;51.508;18.118;2023-11-18T02:29:35;23.10;33.30
23311;DHT22;11828;51.508;18.118;2023-11-18T02:32:15;23.10;33.50
23311;DHT22;11828;51.508;18.118;2023-11-18T02:35:08;23.10;33.40
23311;DHT22;11828;51.508;18.118;2023-11-18T02:37:40;23.10;33.20
23311;DHT22;11828;51.508;18.118;2023-11-18T02:40:14;23.00;33.30
23311;DHT22;11828;51.508;18.118;2023-11-18T02:42:43;23.10;33.30
23311;DHT22;11828;51.508;18.118;2023-11-18T02:45:13;23.10;33.40
23311;DHT22;11828;51.508;18.118;2023-11-18T02:47:44;23.10;33.30
23311;DHT22;11828;51.508;18.118;2023-11-18T02:50:10;23.00;33.20
23311;DHT22;11828;51.508;18.118;2023-11-18T02:52:38;23.00;33.40
23311;DHT22;11828;51.508;18.118;2023-11-18T02:55:05;23.00;33.40
23311;DHT22;11828;51.508;18.118;2023-11-18T02:57:36;22.90;33.40
23311;DHT22;11828;51.508;18.118;2023-11-18T03:00:03;22.90;33.50
23311;DHT22;11828;51.508;18.118;2023-11-18T03:02:31;22.90;33.50
23311;DHT22;11828;51.508;18.118;2023-11-18T03:04:57;22.90;33.40
23311;DHT22;11828;51.508;18.118;2023-11-18T03:07:24;23.00;33.30
23311;DHT22;11828;51.508;18.118;2023-11-18T03:09:50;22.90;33.00
23311;DHT22;11828;51.508;18.118;2023-11-18T03:12:16;22.80;33.00
23311;DHT22;11828;51.508;18.118;2023-11-18T03:14:42;22.80;33.10
23311;DHT22;11828;51.508;18.118;2023-11-18T03:17:09;22.70;33.10
23311;DHT22;11828;51.508;18.118;2023-11-18T03:19:35;22.70;32.90
23311;DHT22;11828;51.508;18.118;2023-11-18T03:22:02;22.60;32.80
23311;DHT22;11828;51.508;18.118;2023-11-18T03:24:28;22.50;32.90
23311;DHT22;11828;51.508;18.118;2023-11-18T03:26:55;22.50;33.00
23311;DHT22;11828;51.508;18.118;2023-11-18T03:29:22;22.50;33.00
23311;DHT22;11828;51.508;18.118;2023-11-18T03:31:49;22.40;33.20
23311;DHT22;11828;51.508;18.118;2023-11-18T03:34:16;22.40;33.20
23311;DHT22;11828;51.508;18.118;2023-11-18T03:36:46;22.30;33.00
23311;DHT22;11828;51.508;18.118;2023-11-18T03:39:13;22.30;33.10
23311;DHT22;11828;51.508;18.118;2023-11-18T03:41:40;22.30;33.20
23311;DHT22;11828;51.508;18.118;2023-11-18T03:44:13;22.30;33.40
23311;DHT22;11828;51.508;18.118;2023-11-18T03:46:39;22.30;33.20
23311;DHT22;11828;51.508;18.118;2023-11-18T03:49:06;22.30;33.10
23311;DHT22;11828;51.508;18.118;2023-11-18T03:51:32;22.30;33.00
23311;DHT22;11828;51.508;18.118;2023-11-18T03:53:58;22.30;33.20
23311;DHT22;11828;51.508;18.118;2023-11-18T03:56:25;22.30;33.00
23311;DHT22;11828;51.508;18.118;2023-11-18T03:58:52;22.40;33.10
23311;DHT22;11828;51.508;18.118;2023-11-18T04:01:22;22.30;33.00
23311;DHT22;11828;51.508;18.118;2023-11-18T04:03:49;22.40;32.90
23311;DHT22;11828;51.508;18.118;2023-11-18T04:06:16;22.30;33.00
23311;DHT22;11828;51.508;18.118;2023-11-18T04:08:44;22.30;33.20
23311;DHT22;11828;51.508;18.118;2023-11-18T04:11:12;22.30;33.20
23311;DHT22;11828;51.508;18.118;2023-11-18T04:13:40;22.40;33.20
23311;DHT22;11828;51.508;18.118;2023-11-18T04:16:10;22.40;32.70
23311;DHT22;11828;51.508;18.118;2023-11-18T04:18:41;22.40;32.80
23311;DHT22;11828;51.508;18.118;2023-11-18T04:21:09;22.30;32.80
23311;DHT22;11828;51.508;18.118;2023-11-18T04:23:40;22.30;32.80
23311;DHT22;11828;51.508;18.118;2023-11-18T04:26:08;22.20;32.90
23311;DHT22;11828;51.508;18.118;2023-11-18T04:28:35;22.30;33.40
23311;DHT22;11828;51.508;18.118;2023-11-18T04:31:03;22.30;33.20
23311;DHT22;11828;51.508;18.118;2023-11-18T04:33:31;22.40;33.20
23311;DHT22;11828;51.508;18.118;2023-11-18T04:35:57;22.50;32.90
23311;DHT22;11828;51.508;18.118;2023-11-18T04:38:23;22.50;32.80
23311;DHT22;11828;51.508;18.118;2023-11-18T04:40:54;22.60;32.50
23311;DHT22;11828;51.508;18.118;2023-11-18T04:43:21;22.50;32.20
23311;DHT22;11828;51.508;18.118;2023-11-18T04:45:50;22.50;32.20
23311;DHT22;11828;51.508;18.118;2023-11-18T04:48:16;22.40;32.00
23311;DHT22;11828;51.508;18.118;2023-11-18T04:50:43;22.40;32.20
23311;DHT22;11828;51.508;18.118;2023-11-18T04:53:09;22.30;32.20
23311;DHT22;11828;51.508;18.118;2023-11-18T04:55:37;22.20;32.20
23311;DHT22;11828;51.508;18.118;2023-11-18T04:58:03;22.10;32.20
23311;DHT22;11828;51.508;18.118;2023-11-18T05:00:36;22.10;32.60
23311;DHT22;11828;51.508;18.118;2023-11-18T05:03:04;22.10;32.60
23311;DHT22;11828;51.508;18.118;2023-11-18T05:05:31;22.00;32.40
23311;DHT22;11828;51.508;18.118;2023-11-18T05:07:57;22.00;32.60
23311;DHT22;11828;51.508;18.118;2023-11-18T05:10:23;22.00;32.60
23311;DHT22;11828;51.508;18.118;2023-11-18T05:12:49;22.00;32.60
23311;DHT22;11828;51.508;18.118;2023-11-18T05:15:21;21.90;32.70
23311;DHT22;11828;51.508;18.118;2023-11-18T05:17:51;21.80;32.70
23311;DHT22;11828;51.508;18.118;2023-11-18T05:20:19;21.70;33.00
23311;DHT22;11828;51.508;18.118;2023-11-18T05:22:45;21.60;33.00
23311;DHT22;11828;51.508;18.118;2023-11-18T05:25:11;21.60;33.10
23311;DHT22;11828;51.508;18.118;2023-11-18T05:27:38;21.50;33.30
23311;DHT22;11828;51.508;18.118;2023-11-18T05:30:08;21.50;33.40
23311;DHT22;11828;51.508;18.118;2023-11-18T05:32:35;21.50;33.60
23311;DHT22;11828;51.508;18.118;2023-11-18T05:35:02;21.50;33.50
23311;DHT22;11828;51.508;18.118;2023-11-18T05:37:30;21.60;33.30
23311;DHT22;11828;51.508;18.118;2023-11-18T05:40:05;21.70;33.40
23311;DHT22;11828;51.508;18.118;2023-11-18T05:42:33;21.60;32.80
23311;DHT22;11828;51.508;18.118;2023-11-18T05:45:04;21.50;32.70
23311;DHT22;11828;51.508;18.118;2023-11-18T05:47:34;21.50;32.60
23311;DHT22;11828;51.508;18.118;2023-11-18T05:50:00;21.40;32.60
23311;DHT22;11828;51.508;18.118;2023-11-18T05:52:27;21.40;32.50
23311;DHT22;11828;51.508;18.118;2023-11-18T05:54:53;21.40;32.50
23311;DHT22;11828;51.508;18.118;2023-11-18T05:57:19;21.40;32.50
23311;DHT22;11828;51.508;18.118;2023-11-18T05:59:45;21.30;32.40
23311;DHT22;11828;51.508;18.118;2023-11-18T06:02:13;21.30;32.50
23311;DHT22;11828;51.508;18.118;2023-11-18T06:04:44;21.30;32.50
23311;DHT22;11828;51.508;18.118;2023-11-18T06:07:11;21.30;32.40
23311;DHT22;11828;51.508;18.118;2023-11-18T06:09:40;21.30;32.30
23311;DHT22;11828;51.508;18.118;2023-11-18T06:12:08;21.20;32.00
23311;DHT22;11828;51.508;18.118;2023-11-18T06:14:39;21.20;32.10
23311;DHT22;11828;51.508;18.118;2023-11-18T06:17:07;21.20;32.10
23311;DHT22;11828;51.508;18.118;2023-11-18T06:19:34;21.20;32.10
23311;DHT22;11828;51.508;18.118;2023-11-18T06:22:00;21.20;32.10
23311;DHT22;11828;51.508;18.118;2023-11-18T06:24:27;21.10;31.90
23311;DHT22;11828;51.508;18.118;2023-11-18T06:26:53;21.00;32.10
23311;DHT22;11828;51.508;18.118;2023-11-18T06:29:20;21.00;32.40
23311;DHT22;11828;51.508;18.118;2023-11-18T06:31:46;21.00;32.50
23311;DHT22;11828;51.508;18.118;2023-11-18T06:34:14;20.90;32.30
23311;DHT22;11828;51.508;18.118;2023-11-18T06:36:40;21.00;32.50
23311;DHT22;11828;51.508;18.118;2023-11-18T06:39:06;21.00;32.40
23311;DHT22;11828;51.508;18.118;2023-11-18T06:41:33;21.00;32.40
23311;DHT22;11828;51.508;18.118;2023-11-18T06:44:00;21.00;33.10
23311;DHT22;11828;51.508;18.118;2023-11-18T06:46:35;21.00;32.20
23311;DHT22;11828;51.508;18.118;2023-11-18T06:49:03;21.00;32.20
23311;DHT22;11828;51.508;18.118;2023-11-18T06:51:31;21.10;32.20
23311;DHT22;11828;51.508;18.118;2023-11-18T06:54:01;21.00;32.20
23311;DHT22;11828;51.508;18.118;2023-11-18T06:56:41;21.10;32.10
23311;DHT22;11828;51.508;18.118;2023-11-18T06:59:11;21.10;32.00
23311;DHT22;11828;51.508;18.118;2023-11-18T07:01:39;21.00;32.10
23311;DHT22;11828;51.508;18.118;2023-11-18T07:04:14;21.10;32.10
23311;DHT22;11828;51.508;18.118;2023-11-18T07:06:40;21.00;32.10
23311;DHT22;11828;51.508;18.118;2023-11-18T07:09:07;21.00;32.20
23311;DHT22;11828;51.508;18.118;2023-11-18T07:11:39;21.00;32.30
23311;DHT22;11828;51.508;18.118;2023-11-18T07:14:07;21.10;32.20
23311;DHT22;11828;51.508;18.118;2023-11-18T07:16:35;21.20;31.90
23311;DHT22;11828;51.508;18.118;2023-11-18T07:19:01;21.10;32.20
23311;DHT22;11828;51.508;18.118;2023-11-18T07:21:29;21.10;32.20
23311;DHT22;11828;51.508;18.118;2023-11-18T07:23:55;21.10;32.30
23311;DHT22;11828;51.508;18.118;2023-11-18T07:26:22;21.20;32.30
23311;DHT22;11828;51.508;18.118;2023-11-18T07:28:50;21.20;32.20
23311;DHT22;11828;51.508;18.118;2023-11-18T07:31:18;21.20;32.20
23311;DHT22;11828;51.508;18.118;2023-11-18T07:33:45;21.30;32.20
23311;DHT22;11828;51.508;18.118;2023-11-18T07:36:18;21.30;32.00
23311;DHT22;11828;51.508;18.118;2023-11-18T07:38:47;21.30;32.40
23311;DHT22;11828;51.508;18.118;2023-11-18T07:41:13;21.30;31.90
23311;DHT22;11828;51.508;18.118;2023-11-18T07:43:50;21.30;31.90
23311;DHT22;11828;51.508;18.118;2023-11-18T07:46:18;21.40;32.10
23311;DHT22;11828;51.508;18.118;2023-11-18T07:48:44;21.50;31.90
23311;DHT22;11828;51.508;18.118;2023-11-18T07:51:11;21.50;32.00
23311;DHT22;11828;51.508;18.118;2023-11-18T07:53:40;21.70;31.80
23311;DHT22;11828;51.508;18.118;2023-11-18T07:56:06;21.80;31.40
23311;DHT22;11828;51.508;18.118;2023-11-18T07:58:36;21.80;31.10
23311;DHT22;11828;51.508;18.118;2023-11-18T08:01:04;21.80;31.20
23311;DHT22;11828;51.508;18.118;2023-11-18T08:03:33;21.80;31.40
23311;DHT22;11828;51.508;18.118;2023-11-18T08:06:00;21.80;31.40
23311;DHT22;11828;51.508;18.118;2023-11-18T08:08:27;21.70;31.20
23311;DHT22;11828;51.508;18.118;2023-11-18T08:10:54;21.80;31.40
23311;DHT22;11828;51.508;18.118;2023-11-18T08:13:21;21.80;31.50
23311;DHT22;11828;51.508;18.118;2023-11-18T08:15:47;21.90;31.40
23311;DHT22;11828;51.508;18.118;2023-11-18T08:18:13;21.90;31.40
23311;DHT22;11828;51.508;18.118;2023-11-18T08:20:39;21.90;31.00
23311;DHT22;11828;51.508;18.118;2023-11-18T08:23:07;22.00;30.90
23311;DHT22;11828;51.508;18.118;2023-11-18T08:25:34;21.90;31.00
23311;DHT22;11828;51.508;18.118;2023-11-18T08:28:02;21.90;31.10
23311;DHT22;11828;51.508;18.118;2023-11-18T08:30:29;21.90;31.20
23311;DHT22;11828;51.508;18.118;2023-11-18T08:32:55;21.90;31.10
23311;DHT22;11828;51.508;18.118;2023-11-18T08:35:23;22.00;31.00
23311;DHT22;11828;51.508;18.118;2023-11-18T08:37:50;22.00;31.10
23311;DHT22;11828;51.508;18.118;2023-11-18T08:40:17;21.90;31.10
23311;DHT22;11828;51.508;18.118;2023-11-18T08:42:52;22.00;31.10
23311;DHT22;11828;51.508;18.118;2023-11-18T08:45:29;21.90;30.90
23311;DHT22;11828;51.508;18.118;2023-11-18T08:48:04;21.90;31.00
23311;DHT22;11828;51.508;18.118;2023-11-18T08:50:37;22.00;31.10
23311;DHT22;11828;51.508;18.118;2023-11-18T08:53:05;22.00;31.00
23311;DHT22;11828;51.508;18.118;2023-11-18T08:55:35;22.00;30.80
23311;DHT22;11828;51.508;18.118;2023-11-18T08:58:08;22.00;31.00
23311;DHT22;11828;51.508;18.118;2023-11-18T09:00:44;22.00;31.00
23311;DHT22;11828;51.508;18.118;2023-11-18T09:03:15;22.00;30.90
23311;DHT22;11828;51.508;18.118;2023-11-18T09:05:52;22.00;30.00
23311;DHT22;11828;51.508;18.118;2023-11-18T09:08:24;22.00;30.70
23311;DHT22;11828;51.508;18.118;2023-11-18T09:10:51;22.00;31.00
23311;DHT22;11828;51.508;18.118;2023-11-18T09:13:24;22.00;30.90
23311;DHT22;11828;51.508;18.118;2023-11-18T09:15:58;22.00;30.60
23311;DHT22;11828;51.508;18.118;2023-11-18T09:18:29;22.00;30.20
23311;DHT22;11828;51.508;18.118;2023-11-18T09:20:59;22.00;30.50
23311;DHT22;11828;51.508;18.118;2023-11-18T09:23:27;21.90;30.60
23311;DHT22;11828;51.508;18.118;2023-11-18T09:25:55;22.00;30.60
23311;DHT22;11828;51.508;18.118;2023-11-18T09:28:22;22.10;30.50
23311;DHT22;11828;51.508;18.118;2023-11-18T09:30:51;22.20;31.00
23311;DHT22;11828;51.508;18.118;2023-11-18T09:33:20;22.40;30.80
23311;DHT22;11828;51.508;18.118;2023-11-18T09:36:05;22.50;30.30
23311;DHT22;11828;51.508;18.118;2023-11-18T09:38:39;22.60;29.90
23311;DHT22;11828;51.508;18.118;2023-11-18T09:41:09;22.70;30.00
23311;DHT22;11828;51.508;18.118;2023-11-18T09:43:40;22.70;30.20
23311;DHT22;11828;51.508;18.118;2023-11-18T09:46:17;22.80;30.10
23311;DHT22;11828;51.508;18.118;2023-11-18T09:49:00;22.70;29.70
23311;DHT22;11828;51.508;18.118;2023-11-18T09:51:42;22.70;29.80
23311;DHT22;11828;51.508;18.118;2023-11-18T09:54:20;22.60;29.90
23311;DHT22;11828;51.508;18.118;2023-11-18T09:57:18;22.60;29.80
23311;DHT22;11828;51.508;18.118;2023-11-18T09:59:55;22.60;29.90
23311;DHT22;11828;51.508;18.118;2023-11-18T10:02:40;22.60;29.70
23311;DHT22;11828;51.508;18.118;2023-11-18T10:05:09;22.50;29.60
23311;DHT22;11828;51.508;18.118;2023-11-18T10:07:41;22.60;29.50
23311;DHT22;11828;51.508;18.118;2023-11-18T10:10:10;22.50;29.70
23311;DHT22;11828;51.508;18.118;2023-11-18T10:12:50;22.50;29.80
23311;DHT22;11828;51.508;18.118;2023-11-18T10:15:24;22.40;29.70
23311;DHT22;11828;51.508;18.118;2023-11-18T10:17:52;22.40;29.90
23311;DHT22;11828;51.508;18.118;2023-11-18T10:23:06;22.30;30.00
23311;DHT22;11828;51.508;18.118;2023-11-18T10:25:56;22.30;30.10
23311;DHT22;11828;51.508;18.118;2023-11-18T10:31:02;22.20;30.20
23311;DHT22;11828;51.508;18.118;2023-11-18T10:33:38;22.20;30.30
23311;DHT22;11828;51.508;18.118;2023-11-18T10:36:17;22.20;29.90
23311;DHT22;11828;51.508;18.118;2023-11-18T10:38:48;22.10;29.90
23311;DHT22;11828;51.508;18.118;2023-11-18T10:41:22;22.10;29.70
23311;DHT22;11828;51.508;18.118;2023-11-18T10:43:48;22.10;29.90
23311;DHT22;11828;51.508;18.118;2023-11-18T10:46:17;22.10;29.80
23311;DHT22;11828;51.508;18.118;2023-11-18T10:48:50;22.10;30.00
23311;DHT22;11828;51.508;18.118;2023-11-18T10:51:18;22.10;29.60
23311;DHT22;11828;51.508;18.118;2023-11-18T10:53:49;22.10;29.60
23311;DHT22;11828;51.508;18.118;2023-11-18T10:56:29;22.10;29.70
23311;DHT22;11828;51.508;18.118;2023-11-18T10:59:04;22.10;29.70
23311;DHT22;11828;51.508;18.118;2023-11-18T11:01:35;22.00;29.90
23311;DHT22;11828;51.508;18.118;2023-11-18T11:04:08;22.10;30.10
23311;DHT22;11828;51.508;18.118;2023-11-18T11:06:41;22.10;29.60
23311;DHT22;11828;51.508;18.118;2023-11-18T11:09:09;22.10;29.80
23311;DHT22;11828;51.508;18.118;2023-11-18T11:11:49;22.10;29.70
23311;DHT22;11828;51.508;18.118;2023-11-18T11:14:34;22.10;29.80
23311;DHT22;11828;51.508;18.118;2023-11-18T11:17:08;22.00;29.90
23311;DHT22;11828;51.508;18.118;2023-11-18T11:20:08;22.00;29.80
23311;DHT22;11828;51.508;18.118;2023-11-18T11:23:00;22.00;29.70
23311;DHT22;11828;51.508;18.118;2023-11-18T11:28:43;22.00;29.80
23311;DHT22;11828;51.508;18.118;2023-11-18T11:31:34;21.90;29.70
23311;DHT22;11828;51.508;18.118;2023-11-18T11:34:06;21.80;29.70
23311;DHT22;11828;51.508;18.118;2023-11-18T11:36:56;21.80;29.70
23311;DHT22;11828;51.508;18.118;2023-11-18T11:39:25;21.80;29.80
23311;DHT22;11828;51.508;18.118;2023-11-18T11:41:52;21.80;29.70
23311;DHT22;11828;51.508;18.118;2023-11-18T11:44:25;21.80;29.70
23311;DHT22;11828;51.508;18.118;2023-11-18T11:46:58;21.80;29.90
23311;DHT22;11828;51.508;18.118;2023-11-18T11:49:27;21.90;29.60
23311;DHT22;11828;51.508;18.118;2023-11-18T11:52:04;21.90;29.70
23311;DHT22;11828;51.508;18.118;2023-11-18T11:54:46;22.00;29.90
23311;DHT22;11828;51.508;18.118;2023-11-18T11:57:15;22.10;29.60
23311;DHT22;11828;51.508;18.118;2023-11-18T12:02:13;22.30;29.80
23311;DHT22;11828;51.508;18.118;2023-11-18T12:04:45;22.30;29.60
23311;DHT22;11828;51.508;18.118;2023-11-18T12:07:11;22.40;29.50
23311;DHT22;11828;51.508;18.118;2023-11-18T12:09:41;22.40;29.40
23311;DHT22;11828;51.508;18.118;2023-11-18T12:12:20;22.50;29.60
23311;DHT22;11828;51.508;18.118;2023-11-18T12:14:54;22.50;29.60
23311;DHT22;11828;51.508;18.118;2023-11-18T12:20:48;22.50;29.60
23311;DHT22;11828;51.508;18.118;2023-11-18T12:23:20;22.50;30.40
23311;DHT22;11828;51.508;18.118;2023-11-18T12:25:50;22.50;29.60
23311;DHT22;11828;51.508;18.118;2023-11-18T12:28:27;22.50;29.50
23311;DHT22;11828;51.508;18.118;2023-11-18T12:31:01;22.50;29.40
23311;DHT22;11828;51.508;18.118;2023-11-18T12:36:53;22.60;29.50
23311;DHT22;11828;51.508;18.118;2023-11-18T12:39:43;22.60;29.10
23311;DHT22;11828;51.508;18.118;2023-11-18T12:42:36;22.60;29.20
23311;DHT22;11828;51.508;18.118;2023-11-18T12:48:20;22.60;29.20
23311;DHT22;11828;51.508;18.118;2023-11-18T12:50:53;22.60;29.20
23311;DHT22;11828;51.508;18.118;2023-11-18T12:53:23;22.60;29.10
23311;DHT22;11828;51.508;18.118;2023-11-18T12:55:50;22.60;29.10
23311;DHT22;11828;51.508;18.118;2023-11-18T12:58:18;22.60;29.10
23311;DHT22;11828;51.508;18.118;2023-11-18T13:00:44;22.50;29.10
23311;DHT22;11828;51.508;18.118;2023-11-18T13:03:11;22.60;29.10
23311;DHT22;11828;51.508;18.118;2023-11-18T13:05:41;22.60;29.00
23311;DHT22;11828;51.508;18.118;2023-11-18T13:08:09;22.60;28.80
23311;DHT22;11828;51.508;18.118;2023-11-18T13:10:35;22.60;29.10
23311;DHT22;11828;51.508;18.118;2023-11-18T13:13:04;22.60;29.10
23311;DHT22;11828;51.508;18.118;2023-11-18T13:15:30;22.70;29.10
23311;DHT22;11828;51.508;18.118;2023-11-18T13:18:04;22.80;28.80
23311;DHT22;11828;51.508;18.118;2023-11-18T13:20:33;22.80;28.80
23311;DHT22;11828;51.508;18.118;2023-11-18T13:23:04;22.90;28.70
23311;DHT22;11828;51.508;18.118;2023-11-18T13:25:36;22.90;28.70
23311;DHT22;11828;51.508;18.118;2023-11-18T13:28:11;22.90;28.40
23311;DHT22;11828;51.508;18.118;2023-11-18T13:30:37;23.00;28.20
23311;DHT22;11828;51.508;18.118;2023-11-18T13:33:04;23.00;28.40
23311;DHT22;11828;51.508;18.118;2023-11-18T13:35:33;23.00;28.50
23311;DHT22;11828;51.508;18.118;2023-11-18T13:37:59;22.90;28.30
23311;DHT22;11828;51.508;18.118;2023-11-18T13:40:25;22.90;28.30
23311;DHT22;11828;51.508;18.118;2023-11-18T13:43:02;23.00;28.40
23311;DHT22;11828;51.508;18.118;2023-11-18T13:45:34;23.00;28.60
23311;DHT22;11828;51.508;18.118;2023-11-18T13:48:00;23.00;28.70
23311;DHT22;11828;51.508;18.118;2023-11-18T13:50:27;23.00;28.50
23311;DHT22;11828;51.508;18.118;2023-11-18T13:52:56;23.00;28.60
23311;DHT22;11828;51.508;18.118;2023-11-18T13:55:22;23.00;28.70
23311;DHT22;11828;51.508;18.118;2023-11-18T13:57:54;23.10;28.70
23311;DHT22;11828;51.508;18.118;2023-11-18T14:00:27;23.10;29.00
23311;DHT22;11828;51.508;18.118;2023-11-18T14:02:55;23.10;29.00
23311;DHT22;11828;51.508;18.118;2023-11-18T14:05:23;23.10;29.20
23311;DHT22;11828;51.508;18.118;2023-11-18T14:07:53;23.10;29.00
23311;DHT22;11828;51.508;18.118;2023-11-18T14:10:25;23.10;28.90
23311;DHT22;11828;51.508;18.118;2023-11-18T14:13:07;23.00;28.90
23311;DHT22;11828;51.508;18.118;2023-11-18T14:15:38;22.90;29.00
23311;DHT22;11828;51.508;18.118;2023-11-18T14:18:04;22.90;29.30
23311;DHT22;11828;51.508;18.118;2023-11-18T14:20:33;22.90;29.20
23311;DHT22;11828;51.508;18.118;2023-11-18T14:23:02;23.00;29.10
23311;DHT22;11828;51.508;18.118;2023-11-18T14:25:30;23.00;28.90
23311;DHT22;11828;51.508;18.118;2023-11-18T14:28:00;23.00;29.00
23311;DHT22;11828;51.508;18.118;2023-11-18T14:30:28;23.00;29.00
23311;DHT22;11828;51.508;18.118;2023-11-18T14:32:54;23.00;28.70
23311;DHT22;11828;51.508;18.118;2023-11-18T14:35:20;23.00;28.80
23311;DHT22;11828;51.508;18.118;2023-11-18T14:37:48;23.00;28.60
23311;DHT22;11828;51.508;18.118;2023-11-18T14:40:15;23.00;28.70
23311;DHT22;11828;51.508;18.118;2023-11-18T14:42:46;23.00;28.80
23311;DHT22;11828;51.508;18.118;2023-11-18T14:45:14;23.00;28.80
23311;DHT22;11828;51.508;18.118;2023-11-18T14:47:42;23.00;28.80
23311;DHT22;11828;51.508;18.118;2023-11-18T14:50:13;22.90;28.70
23311;DHT22;11828;51.508;18.118;2023-11-18T14:52:47;22.90;28.80
23311;DHT22;11828;51.508;18.118;2023-11-18T14:55:16;22.90;28.80
23311;DHT22;11828;51.508;18.118;2023-11-18T14:57:44;22.80;28.80
23311;DHT22;11828;51.508;18.118;2023-11-18T15:00:13;22.70;28.90
23311;DHT22;11828;51.508;18.118;2023-11-18T15:02:52;22.70;28.90
23311;DHT22;11828;51.508;18.118;2023-11-18T15:05:20;22.70;28.90
23311;DHT22;11828;51.508;18.118;2023-11-18T15:07:52;22.70;29.00
23311;DHT22;11828;51.508;18.118;2023-11-18T15:10:22;22.60;29.00
23311;DHT22;11828;51.508;18.118;2023-11-18T15:12:57;22.60;29.00
23311;DHT22;11828;51.508;18.118;2023-11-18T15:15:28;22.50;29.10
23311;DHT22;11828;51.508;18.118;2023-11-18T15:18:09;22.50;29.10
23311;DHT22;11828;51.508;18.118;2023-11-18T15:20:39;22.50;29.10
23311;DHT22;11828;51.508;18.118;2023-11-18T15:23:12;22.40;29.10
23311;DHT22;11828;51.508;18.118;2023-11-18T15:25:39;22.40;29.30
23311;DHT22;11828;51.508;18.118;2023-11-18T15:28:06;22.40;29.30
23311;DHT22;11828;51.508;18.118;2023-11-18T15:30:39;22.30;29.30
23311;DHT22;11828;51.508;18.118;2023-11-18T15:33:06;22.20;29.30
23311;DHT22;11828;51.508;18.118;2023-11-18T15:35:36;22.20;29.40
23311;DHT22;11828;51.508;18.118;2023-11-18T15:38:07;22.20;29.30
23311;DHT22;11828;51.508;18.118;2023-11-18T15:40:37;22.10;29.30
23311;DHT22;11828;51.508;18.118;2023-11-18T15:43:04;22.10;29.30
23311;DHT22;11828;51.508;18.118;2023-11-18T15:45:33;22.00;29.40
23311;DHT22;11828;51.508;18.118;2023-11-18T15:48:00;22.00;29.50
23311;DHT22;11828;51.508;18.118;2023-11-18T15:50:31;22.00;29.50
23311;DHT22;11828;51.508;18.118;2023-11-18T15:52:58;21.90;29.40
23311;DHT22;11828;51.508;18.118;2023-11-18T15:55:24;21.90;29.20